sensor_id;sensor_type;location;lat;lon;timestamp;pressure;altitude;pressure_sealevel;temperature;humidity
54455;BME280;40364;52.270;10.546;2024-01-30T00:00:01;101823.94;;;21.84;31.19
54455;BME280;40364;52.270;10.546;2024-01-30T00:02:28;101830.44;;;21.14;31.70
54455;BME280;40364;52.270;10.546;2024-01-30T00:04:55;101820.94;;;21.30;31.58
54455;BME280;40364;52.270;10.546;2024-01-30T00:07:22;101826.88;;;21.55;30.75
54455;BME280;40364;52.270;10.546;2024-01-30T00:09:48;101828.34;;;21.38;30.33
54455;BME280;40364;52.270;10.546;2024-01-30T00:12:15;101821.88;;;21.07;31.22
54455;BME280;40364;52.270;10.546;2024-01-30T00:14:42;101824.56;;;20.97;32.07
54455;BME280;40364;52.270;10.546;2024-01-30T00:17:10;101824.25;;;21.05;32.42
54455;BME280;40364;52.270;10.546;2024-01-30T00:19:37;101826.41;;;21.15;31.78
54455;BME280;40364;52.270;10.546;2024-01-30T00:22:04;101816.81;;;21.24;31.39
54455;BME280;40364;52.270;10.546;2024-01-30T00:24:31;101804.09;;;21.44;30.88
54455;BME280;40364;52.270;10.546;2024-01-30T00:26:57;101822.28;;;21.43;31.24
54455;BME280;40364;52.270;10.546;2024-01-30T00:29:25;101822.44;;;21.94;30.73
54455;BME280;40364;52.270;10.546;2024-01-30T00:31:55;101814.06;;;21.68;30.98
54455;BME280;40364;52.270;10.546;2024-01-30T00:34:23;101811.41;;;22.33;30.79
54455;BME280;40364;52.270;10.546;2024-01-30T00:36:50;101810.09;;;21.76;30.72
54455;BME280;40364;52.270;10.546;2024-01-30T00:39:16;101806.34;;;21.28;31.84
54455;BME280;40364;52.270;10.546;2024-01-30T00:41:44;101803.66;;;21.42;31.43
54455;BME280;40364;52.270;10.546;2024-01-30T00:44:11;101806.03;;;21.36;31.63
54455;BME280;40364;52.270;10.546;2024-01-30T00:46:38;101804.09;;;21.44;31.60
54455;BME280;40364;52.270;10.546;2024-01-30T00:49:04;101804.69;;;21.60;31.23
54455;BME280;40364;52.270;10.546;2024-01-30T00:51:32;101819.41;;;22.17;30.53
54455;BME280;40364;52.270;10.546;2024-01-30T00:53:59;101811.75;;;21.80;30.56
54455;BME280;40364;52.270;10.546;2024-01-30T00:56:26;101811.72;;;21.36;30.70
54455;BME280;40364;52.270;10.546;2024-01-30T00:58:52;101820.28;;;21.13;30.44
54455;BME280;40364;52.270;10.546;2024-01-30T01:01:19;101808.31;;;20.94;31.02
54455;BME280;40364;52.270;10.546;2024-01-30T01:03:46;101817.09;;;20.85;31.29
54455;BME280;40364;52.270;10.546;2024-01-30T01:06:13;101824.84;;;20.88;31.27
54455;BME280;40364;52.270;10.546;2024-01-30T01:08:41;101819.47;;;21.83;30.54
54455;BME280;40364;52.270;10.546;2024-01-30T01:11:08;101821.88;;;21.07;30.95
54455;BME280;40364;52.270;10.546;2024-01-30T01:13:35;101825.47;;;21.04;31.28
54455;BME280;40364;52.270;10.546;2024-01-30T01:16:01;101825.38;;;20.97;31.35
54455;BME280;40364;52.270;10.546;2024-01-30T01:18:29;101825.94;;;20.80;31.47
54455;BME280;40364;52.270;10.546;2024-01-30T01:20:55;101816.34;;;20.88;31.16
54455;BME280;40364;52.270;10.546;2024-01-30T01:23:22;101817.63;;;20.64;31.68
54455;BME280;40364;52.270;10.546;2024-01-30T01:25:50;101819.84;;;21.38;31.94
54455;BME280;40364;52.270;10.546;2024-01-30T01:28:17;101816.16;;;20.74;32.55
54455;BME280;40364;52.270;10.546;2024-01-30T01:30:44;101810.88;;;19.97;34.05
54455;BME280;40364;52.270;10.546;2024-01-30T01:33:10;101821.25;;;19.89;34.47
54455;BME280;40364;52.270;10.546;2024-01-30T01:35:39;101818.75;;;20.33;33.77
54455;BME280;40364;52.270;10.546;2024-01-30T01:38:06;101823.22;;;20.34;33.68
54455;BME280;40364;52.270;10.546;2024-01-30T01:40:33;101818.34;;;20.58;33.32
54455;BME280;40364;52.270;10.546;2024-01-30T01:43:03;101817.44;;;20.80;33.65
54455;BME280;40364;52.270;10.546;2024-01-30T01:45:30;101816.19;;;20.25;33.81
54455;BME280;40364;52.270;10.546;2024-01-30T01:47:56;101815.03;;;20.82;32.76
54455;BME280;40364;52.270;10.546;2024-01-30T01:50:23;101806.63;;;20.89;32.42
54455;BME280;40364;52.270;10.546;2024-01-30T01:52:51;101810.00;;;20.98;31.82
54455;BME280;40364;52.270;10.546;2024-01-30T01:55:19;101811.59;;;21.26;31.85
54455;BME280;40364;52.270;10.546;2024-01-30T01:57:49;101817.91;;;20.85;31.63
54455;BME280;40364;52.270;10.546;2024-01-30T02:00:18;101800.00;;;21.38;31.32
54455;BME280;40364;52.270;10.546;2024-01-30T02:02:46;101806.75;;;20.96;31.21
54455;BME280;40364;52.270;10.546;2024-01-30T02:05:13;101804.09;;;20.80;31.45
54455;BME280;40364;52.270;10.546;2024-01-30T02:07:40;101803.28;;;20.80;31.62
54455;BME280;40364;52.270;10.546;2024-01-30T02:10:08;101804.13;;;20.84;31.61
54455;BME280;40364;52.270;10.546;2024-01-30T02:12:35;101808.59;;;20.55;31.67
54455;BME280;40364;52.270;10.546;2024-01-30T02:15:01;101800.88;;;20.82;31.43
54455;BME280;40364;52.270;10.546;2024-01-30T02:17:31;101797.59;;;21.40;30.88
54455;BME280;40364;52.270;10.546;2024-01-30T02:19:58;101791.81;;;20.69;31.54
54455;BME280;40364;52.270;10.546;2024-01-30T02:22:26;101782.97;;;21.04;32.38
54455;BME280;40364;52.270;10.546;2024-01-30T02:24:53;101776.94;;;20.46;32.28
54455;BME280;40364;52.270;10.546;2024-01-30T02:27:19;101775.69;;;20.43;32.22
54455;BME280;40364;52.270;10.546;2024-01-30T02:29:46;101783.81;;;20.75;31.75
54455;BME280;40364;52.270;10.546;2024-01-30T02:32:13;101774.78;;;20.66;31.63
54455;BME280;40364;52.270;10.546;2024-01-30T02:34:39;101779.41;;;20.77;31.46
54455;BME280;40364;52.270;10.546;2024-01-30T02:37:06;101780.56;;;20.73;31.74
54455;BME280;40364;52.270;10.546;2024-01-30T02:39:34;101765.56;;;21.36;31.49
54455;BME280;40364;52.270;10.546;2024-01-30T02:42:01;101770.81;;;20.70;31.79
54455;BME280;40364;52.270;10.546;2024-01-30T02:44:27;101765.66;;;20.49;32.25
54455;BME280;40364;52.270;10.546;2024-01-30T02:46:54;101763.63;;;20.76;31.53
54455;BME280;40364;52.270;10.546;2024-01-30T02:49:21;101764.59;;;20.35;32.52
54455;BME280;40364;52.270;10.546;2024-01-30T02:51:47;101769.00;;;20.32;32.83
54455;BME280;40364;52.270;10.546;2024-01-30T02:54:14;101760.91;;;20.31;33.10
54455;BME280;40364;52.270;10.546;2024-01-30T02:56:42;101766.91;;;20.82;33.36
54455;BME280;40364;52.270;10.546;2024-01-30T02:59:09;101765.63;;;20.46;33.05
54455;BME280;40364;52.270;10.546;2024-01-30T03:01:42;101765.19;;;21.41;32.28
54455;BME280;40364;52.270;10.546;2024-01-30T03:04:09;101766.28;;;20.66;32.98
54455;BME280;40364;52.270;10.546;2024-01-30T03:06:36;101762.16;;;20.60;33.35
54455;BME280;40364;52.270;10.546;2024-01-30T03:09:02;101764.38;;;20.43;32.98
54455;BME280;40364;52.270;10.546;2024-01-30T03:11:30;101762.09;;;20.86;32.58
54455;BME280;40364;52.270;10.546;2024-01-30T03:13:58;101755.00;;;21.33;32.09
54455;BME280;40364;52.270;10.546;2024-01-30T03:16:25;101768.16;;;20.84;31.63
54455;BME280;40364;52.270;10.546;2024-01-30T03:18:52;101767.25;;;20.77;31.18
54455;BME280;40364;52.270;10.546;2024-01-30T03:21:18;101759.97;;;20.76;31.54
54455;BME280;40364;52.270;10.546;2024-01-30T03:23:45;101759.31;;;20.60;31.33
54455;BME280;40364;52.270;10.546;2024-01-30T03:26:12;101750.97;;;20.40;31.63
54455;BME280;40364;52.270;10.546;2024-01-30T03:28:40;101757.56;;;20.48;31.62
54455;BME280;40364;52.270;10.546;2024-01-30T03:31:09;101748.28;;;20.81;31.92
54455;BME280;40364;52.270;10.546;2024-01-30T03:33:36;101751.53;;;20.83;31.69
54455;BME280;40364;52.270;10.546;2024-01-30T03:36:04;101748.81;;;20.60;32.22
54455;BME280;40364;52.270;10.546;2024-01-30T03:38:31;101747.81;;;20.45;31.51
54455;BME280;40364;52.270;10.546;2024-01-30T03:40:59;101743.59;;;20.36;31.68
54455;BME280;40364;52.270;10.546;2024-01-30T03:43:25;101739.53;;;20.33;31.58
54455;BME280;40364;52.270;10.546;2024-01-30T03:45:52;101752.03;;;20.59;31.23
54455;BME280;40364;52.270;10.546;2024-01-30T03:48:21;101744.75;;;21.21;30.73
54455;BME280;40364;52.270;10.546;2024-01-30T03:50:47;101743.06;;;20.27;31.79
54455;BME280;40364;52.270;10.546;2024-01-30T03:53:17;101747.03;;;19.96;32.49
54455;BME280;40364;52.270;10.546;2024-01-30T03:55:43;101736.38;;;20.12;32.16
54455;BME280;40364;52.270;10.546;2024-01-30T03:58:10;101746.56;;;20.16;32.12
54455;BME280;40364;52.270;10.546;2024-01-30T04:00:36;101743.44;;;20.25;32.38
54455;BME280;40364;52.270;10.546;2024-01-30T04:03:03;101745.13;;;20.30;32.22
54455;BME280;40364;52.270;10.546;2024-01-30T04:05:32;101735.97;;;21.00;31.62
54455;BME280;40364;52.270;10.546;2024-01-30T04:07:59;101738.28;;;20.91;31.26
54455;BME280;40364;52.270;10.546;2024-01-30T04:10:26;101730.25;;;20.63;31.28
54455;BME280;40364;52.270;10.546;2024-01-30T04:12:52;101736.88;;;20.74;31.01
54455;BME280;40364;52.270;10.546;2024-01-30T04:15:19;101727.75;;;20.58;31.30
54455;BME280;40364;52.270;10.546;2024-01-30T04:17:46;101725.06;;;20.12;32.94
54455;BME280;40364;52.270;10.546;2024-01-30T04:20:14;101727.44;;;20.36;33.19
54455;BME280;40364;52.270;10.546;2024-01-30T04:22:43;101724.81;;;20.80;33.00
54455;BME280;40364;52.270;10.546;2024-01-30T04:25:10;101719.84;;;20.40;33.21
54455;BME280;40364;52.270;10.546;2024-01-30T04:27:36;101729.28;;;20.48;33.01
54455;BME280;40364;52.270;10.546;2024-01-30T04:30:04;101724.41;;;20.82;32.90
54455;BME280;40364;52.270;10.546;2024-01-30T04:32:31;101716.69;;;20.75;32.45
54455;BME280;40364;52.270;10.546;2024-01-30T04:34:57;101722.69;;;20.70;32.82
54455;BME280;40364;52.270;10.546;2024-01-30T04:37:24;101727.47;;;20.66;32.75
54455;BME280;40364;52.270;10.546;2024-01-30T04:39:52;101723.06;;;21.02;33.10
54455;BME280;40364;52.270;10.546;2024-01-30T04:42:19;101718.84;;;20.89;33.20
54455;BME280;40364;52.270;10.546;2024-01-30T04:44:46;101722.59;;;20.63;33.43
54455;BME280;40364;52.270;10.546;2024-01-30T04:47:13;101719.22;;;20.28;33.95
54455;BME280;40364;52.270;10.546;2024-01-30T04:49:39;101725.25;;;20.52;33.47
54455;BME280;40364;52.270;10.546;2024-01-30T04:52:06;101725.94;;;20.72;32.64
54455;BME280;40364;52.270;10.546;2024-01-30T04:54:33;101727.91;;;20.68;32.53
54455;BME280;40364;52.270;10.546;2024-01-30T04:57:01;101725.72;;;21.22;32.37
54455;BME280;40364;52.270;10.546;2024-01-30T04:59:28;101725.81;;;20.35;32.38
54455;BME280;40364;52.270;10.546;2024-01-30T05:01:55;101722.13;;;20.05;33.99
54455;BME280;40364;52.270;10.546;2024-01-30T05:04:22;101729.63;;;20.20;34.13
54455;BME280;40364;52.270;10.546;2024-01-30T05:06:48;101724.88;;;20.28;34.46
54455;BME280;40364;52.270;10.546;2024-01-30T05:09:15;101729.63;;;20.20;34.60
54455;BME280;40364;52.270;10.546;2024-01-30T05:11:41;101721.19;;;20.24;34.63
54455;BME280;40364;52.270;10.546;2024-01-30T05:14:09;101722.34;;;20.75;34.58
54455;BME280;40364;52.270;10.546;2024-01-30T05:16:37;101722.53;;;20.60;33.86
54455;BME280;40364;52.270;10.546;2024-01-30T05:19:03;101719.28;;;20.31;34.38
54455;BME280;40364;52.270;10.546;2024-01-30T05:21:30;101724.31;;;20.71;33.24
54455;BME280;40364;52.270;10.546;2024-01-30T05:23:57;101729.59;;;20.73;33.07
54455;BME280;40364;52.270;10.546;2024-01-30T05:26:23;101723.50;;;20.71;33.01
54455;BME280;40364;52.270;10.546;2024-01-30T05:28:50;101732.81;;;20.71;32.76
54455;BME280;40364;52.270;10.546;2024-01-30T05:31:18;101717.03;;;20.70;33.01
54455;BME280;40364;52.270;10.546;2024-01-30T05:33:46;101718.41;;;20.27;32.94
54455;BME280;40364;52.270;10.546;2024-01-30T05:36:12;101728.97;;;20.30;32.78
54455;BME280;40364;52.270;10.546;2024-01-30T05:38:39;101723.19;;;20.23;33.45
54455;BME280;40364;52.270;10.546;2024-01-30T05:41:06;101716.84;;;20.30;33.17
54455;BME280;40364;52.270;10.546;2024-01-30T05:43:33;101722.56;;;20.33;32.99
54455;BME280;40364;52.270;10.546;2024-01-30T05:46:00;101721.22;;;20.54;33.45
54455;BME280;40364;52.270;10.546;2024-01-30T05:48:28;101718.06;;;21.26;33.47
54455;BME280;40364;52.270;10.546;2024-01-30T05:50:55;101715.06;;;20.44;33.53
54455;BME280;40364;52.270;10.546;2024-01-30T05:53:21;101718.22;;;20.69;33.08
54455;BME280;40364;52.270;10.546;2024-01-30T05:55:48;101728.06;;;20.79;32.94
54455;BME280;40364;52.270;10.546;2024-01-30T05:58:15;101718.16;;;20.99;32.58
54455;BME280;40364;52.270;10.546;2024-01-30T06:00:40;101725.28;;;20.86;32.53
54455;BME280;40364;52.270;10.546;2024-01-30T06:03:07;101724.22;;;20.98;32.56
54455;BME280;40364;52.270;10.546;2024-01-30T06:05:35;101713.84;;;21.12;32.97
54455;BME280;40364;52.270;10.546;2024-01-30T06:08:02;101718.06;;;20.59;33.99
54455;BME280;40364;52.270;10.546;2024-01-30T06:10:28;101725.91;;;21.02;33.28
54455;BME280;40364;52.270;10.546;2024-01-30T06:12:55;101722.19;;;20.65;33.64
54455;BME280;40364;52.270;10.546;2024-01-30T06:15:21;101718.75;;;20.82;33.17
54455;BME280;40364;52.270;10.546;2024-01-30T06:17:48;101713.13;;;20.85;33.06
54455;BME280;40364;52.270;10.546;2024-01-30T06:20:18;101707.06;;;21.61;32.38
54455;BME280;40364;52.270;10.546;2024-01-30T06:22:55;101703.47;;;21.64;32.12
54455;BME280;40364;52.270;10.546;2024-01-30T06:25:26;101706.53;;;21.08;32.71
54455;BME280;40364;52.270;10.546;2024-01-30T06:27:53;101711.81;;;21.13;33.46
54455;BME280;40364;52.270;10.546;2024-01-30T06:30:21;101702.72;;;21.27;32.76
54455;BME280;40364;52.270;10.546;2024-01-30T06:32:47;101707.16;;;21.28;32.21
54455;BME280;40364;52.270;10.546;2024-01-30T06:35:14;101708.91;;;21.43;31.91
54455;BME280;40364;52.270;10.546;2024-01-30T06:37:42;101701.59;;;21.01;32.10
54455;BME280;40364;52.270;10.546;2024-01-30T06:40:12;101706.63;;;21.56;32.07
54455;BME280;40364;52.270;10.546;2024-01-30T06:42:38;101705.88;;;20.88;32.22
54455;BME280;40364;52.270;10.546;2024-01-30T06:45:44;101711.59;;;21.69;31.68
54455;BME280;40364;52.270;10.546;2024-01-30T06:48:16;101710.13;;;21.90;31.20
54455;BME280;40364;52.270;10.546;2024-01-30T06:50:43;101699.25;;;21.10;31.60
54455;BME280;40364;52.270;10.546;2024-01-30T06:53:23;101694.44;;;21.51;31.36
54455;BME280;40364;52.270;10.546;2024-01-30T06:55:53;101707.00;;;20.80;32.57
54455;BME280;40364;52.270;10.546;2024-01-30T06:58:20;101707.44;;;20.22;33.77
54455;BME280;40364;52.270;10.546;2024-01-30T07:00:47;101706.91;;;20.13;34.04
54455;BME280;40364;52.270;10.546;2024-01-30T07:03:14;101694.38;;;19.88;34.63
54455;BME280;40364;52.270;10.546;2024-01-30T07:05:40;101699.00;;;20.26;33.88
54455;BME280;40364;52.270;10.546;2024-01-30T07:08:08;101706.75;;;20.59;33.31
54455;BME280;40364;52.270;10.546;2024-01-30T07:10:34;101698.59;;;20.54;32.97
54455;BME280;40364;52.270;10.546;2024-01-30T07:13:02;101696.28;;;20.63;33.51
54455;BME280;40364;52.270;10.546;2024-01-30T07:15:31;101688.94;;;20.02;33.87
54455;BME280;40364;52.270;10.546;2024-01-30T07:17:58;101696.41;;;20.13;33.54
54455;BME280;40364;52.270;10.546;2024-01-30T07:20:24;101698.63;;;20.57;32.54
54455;BME280;40364;52.270;10.546;2024-01-30T07:22:51;101696.78;;;20.38;32.47
54455;BME280;40364;52.270;10.546;2024-01-30T07:25:18;101689.78;;;20.02;32.84
54455;BME280;40364;52.270;10.546;2024-01-30T07:27:45;101694.34;;;19.84;32.91
54455;BME280;40364;52.270;10.546;2024-01-30T07:30:13;101692.50;;;20.51;32.45
54455;BME280;40364;52.270;10.546;2024-01-30T07:32:41;101689.66;;;19.95;32.49
54455;BME280;40364;52.270;10.546;2024-01-30T07:35:08;101695.44;;;20.32;31.86
54455;BME280;40364;52.270;10.546;2024-01-30T07:37:35;101697.22;;;19.88;32.60
54455;BME280;40364;52.270;10.546;2024-01-30T07:40:02;101687.53;;;20.15;32.42
54455;BME280;40364;52.270;10.546;2024-01-30T07:42:29;101686.34;;;19.90;32.84
54455;BME280;40364;52.270;10.546;2024-01-30T07:44:55;101687.06;;;19.83;32.95
54455;BME280;40364;52.270;10.546;2024-01-30T07:47:23;101699.06;;;20.59;32.43
54455;BME280;40364;52.270;10.546;2024-01-30T07:49:50;101701.19;;;20.09;32.59
54455;BME280;40364;52.270;10.546;2024-01-30T07:52:17;101700.25;;;20.02;33.09
54455;BME280;40364;52.270;10.546;2024-01-30T07:54:43;101700.91;;;19.92;33.29
54455;BME280;40364;52.270;10.546;2024-01-30T07:57:10;101699.38;;;19.48;34.68
54455;BME280;40364;52.270;10.546;2024-01-30T07:59:37;101701.53;;;20.34;33.38
54455;BME280;40364;52.270;10.546;2024-01-30T08:02:04;101705.38;;;20.45;32.55
54455;BME280;40364;52.270;10.546;2024-01-30T08:04:32;101692.78;;;21.10;32.07
54455;BME280;40364;52.270;10.546;2024-01-30T08:06:59;101699.75;;;20.82;31.82
54455;BME280;40364;52.270;10.546;2024-01-30T08:09:25;101702.09;;;20.73;31.78
54455;BME280;40364;52.270;10.546;2024-01-30T08:11:52;101702.63;;;20.52;33.17
54455;BME280;40364;52.270;10.546;2024-01-30T08:14:19;101692.00;;;21.09;32.63
54455;BME280;40364;52.270;10.546;2024-01-30T08:16:45;101697.81;;;21.24;32.60
54455;BME280;40364;52.270;10.546;2024-01-30T08:19:12;101694.47;;;21.55;31.65
54455;BME280;40364;52.270;10.546;2024-01-30T08:21:40;101702.00;;;22.46;30.84
54455;BME280;40364;52.270;10.546;2024-01-30T08:24:08;101694.22;;;21.74;31.57
54455;BME280;40364;52.270;10.546;2024-01-30T08:26:35;101695.03;;;21.75;31.43
54455;BME280;40364;52.270;10.546;2024-01-30T08:29:02;101689.56;;;21.11;32.05
54455;BME280;40364;52.270;10.546;2024-01-30T08:31:29;101694.41;;;21.07;32.78
54455;BME280;40364;52.270;10.546;2024-01-30T08:33:56;101695.50;;;20.99;32.63
54455;BME280;40364;52.270;10.546;2024-01-30T08:36:22;101691.13;;;21.05;32.90
54455;BME280;40364;52.270;10.546;2024-01-30T08:38:50;101699.94;;;21.81;32.50
54455;BME280;40364;52.270;10.546;2024-01-30T08:41:17;101696.22;;;21.26;33.29
54455;BME280;40364;52.270;10.546;2024-01-30T08:43:44;101698.16;;;22.14;31.64
54455;BME280;40364;52.270;10.546;2024-01-30T08:46:11;101690.34;;;21.97;31.52
54455;BME280;40364;52.270;10.546;2024-01-30T08:48:38;101686.28;;;21.06;33.64
54455;BME280;40364;52.270;10.546;2024-01-30T08:51:04;101691.38;;;21.27;33.34
54455;BME280;40364;52.270;10.546;2024-01-30T08:53:33;101690.94;;;21.72;33.28
54455;BME280;40364;52.270;10.546;2024-01-30T08:56:02;101693.69;;;21.58;33.82
54455;BME280;40364;52.270;10.546;2024-01-30T08:58:28;101696.59;;;20.88;34.42
54455;BME280;40364;52.270;10.546;2024-01-30T09:00:55;101689.75;;;21.73;33.18
54455;BME280;40364;52.270;10.546;2024-01-30T09:03:22;101685.72;;;22.29;32.59
54455;BME280;40364;52.270;10.546;2024-01-30T09:05:49;101685.00;;;21.37;34.00
54455;BME280;40364;52.270;10.546;2024-01-30T09:08:15;101690.75;;;21.47;33.59
54455;BME280;40364;52.270;10.546;2024-01-30T09:10:42;101681.25;;;21.26;34.18
54455;BME280;40364;52.270;10.546;2024-01-30T09:13:11;101684.25;;;21.47;34.42
54455;BME280;40364;52.270;10.546;2024-01-30T09:15:38;101678.94;;;22.55;32.27
54455;BME280;40364;52.270;10.546;2024-01-30T09:18:05;101684.19;;;21.88;33.29
54455;BME280;40364;52.270;10.546;2024-01-30T09:20:32;101676.69;;;22.13;33.28
54455;BME280;40364;52.270;10.546;2024-01-30T09:22:59;101680.25;;;22.03;33.00
54455;BME280;40364;52.270;10.546;2024-01-30T09:25:25;101679.09;;;22.11;33.23
54455;BME280;40364;52.270;10.546;2024-01-30T09:27:52;101682.88;;;21.74;33.56
54455;BME280;40364;52.270;10.546;2024-01-30T09:30:20;101673.09;;;22.23;33.45
54455;BME280;40364;52.270;10.546;2024-01-30T09:32:46;101694.13;;;21.64;33.96
54455;BME280;40364;52.270;10.546;2024-01-30T09:35:16;101689.28;;;22.19;33.55
54455;BME280;40364;52.270;10.546;2024-01-30T09:37:43;101683.59;;;22.15;33.49
54455;BME280;40364;52.270;10.546;2024-01-30T09:40:10;101675.03;;;22.88;32.41
54455;BME280;40364;52.270;10.546;2024-01-30T09:42:36;101686.25;;;21.91;33.82
54455;BME280;40364;52.270;10.546;2024-01-30T09:45:05;101690.34;;;22.69;33.08
54455;BME280;40364;52.270;10.546;2024-01-30T09:47:40;101680.00;;;23.55;31.72
54455;BME280;40364;52.270;10.546;2024-01-30T09:50:08;101669.81;;;24.00;31.20
54455;BME280;40364;52.270;10.546;2024-01-30T09:52:35;101678.31;;;23.04;32.31
54455;BME280;40364;52.270;10.546;2024-01-30T09:55:02;101681.16;;;23.11;32.18
54455;BME280;40364;52.270;10.546;2024-01-30T09:57:29;101679.81;;;22.77;32.49
54455;BME280;40364;52.270;10.546;2024-01-30T09:59:56;101676.91;;;21.90;34.10
54455;BME280;40364;52.270;10.546;2024-01-30T10:02:23;101675.09;;;23.41;32.14
54455;BME280;40364;52.270;10.546;2024-01-30T10:04:52;101675.38;;;24.54;30.75
54455;BME280;40364;52.270;10.546;2024-01-30T10:07:19;101667.41;;;23.67;31.50
54455;BME280;40364;52.270;10.546;2024-01-30T10:09:46;101672.66;;;23.40;32.16
54455;BME280;40364;52.270;10.546;2024-01-30T10:12:15;101673.84;;;23.10;32.66
54455;BME280;40364;52.270;10.546;2024-01-30T10:14:42;101673.44;;;23.08;32.69
54455;BME280;40364;52.270;10.546;2024-01-30T10:17:10;101674.69;;;24.07;31.56
54455;BME280;40364;52.270;10.546;2024-01-30T10:19:37;101657.69;;;24.91;29.84
54455;BME280;40364;52.270;10.546;2024-01-30T10:22:05;101656.09;;;24.79;30.26
54455;BME280;40364;52.270;10.546;2024-01-30T10:24:33;101657.22;;;23.41;32.22
54455;BME280;40364;52.270;10.546;2024-01-30T10:27:00;101658.47;;;20.78;36.07
54455;BME280;40364;52.270;10.546;2024-01-30T10:29:27;101662.44;;;22.06;34.20
54455;BME280;40364;52.270;10.546;2024-01-30T10:32:00;101663.31;;;22.13;34.25
54455;BME280;40364;52.270;10.546;2024-01-30T10:34:28;101655.56;;;23.04;33.02
54455;BME280;40364;52.270;10.546;2024-01-30T10:37:01;101661.47;;;24.70;30.61
54455;BME280;40364;52.270;10.546;2024-01-30T10:39:38;101654.31;;;22.84;33.35
54455;BME280;40364;52.270;10.546;2024-01-30T10:42:05;101650.91;;;22.46;33.77
54455;BME280;40364;52.270;10.546;2024-01-30T10:44:44;101643.72;;;24.19;31.63
54455;BME280;40364;52.270;10.546;2024-01-30T10:47:18;101647.84;;;24.08;31.71
54455;BME280;40364;52.270;10.546;2024-01-30T10:49:49;101638.28;;;25.34;29.86
54455;BME280;40364;52.270;10.546;2024-01-30T10:52:17;101663.34;;;25.57;29.60
54455;BME280;40364;52.270;10.546;2024-01-30T10:54:45;101659.78;;;25.94;29.06
54455;BME280;40364;52.270;10.546;2024-01-30T10:57:12;101655.09;;;24.41;30.99
54455;BME280;40364;52.270;10.546;2024-01-30T10:59:41;101654.25;;;22.73;33.24
54455;BME280;40364;52.270;10.546;2024-01-30T11:02:09;101651.56;;;23.23;33.15
54455;BME280;40364;52.270;10.546;2024-01-30T11:04:36;101652.28;;;24.30;31.56
54455;BME280;40364;52.270;10.546;2024-01-30T11:07:13;101646.69;;;23.66;32.11
54455;BME280;40364;52.270;10.546;2024-01-30T11:09:40;101638.63;;;22.21;33.96
54455;BME280;40364;52.270;10.546;2024-01-30T11:12:13;101637.84;;;25.83;29.68
54455;BME280;40364;52.270;10.546;2024-01-30T11:14:39;101638.16;;;23.41;32.58
54455;BME280;40364;52.270;10.546;2024-01-30T11:17:06;101628.28;;;24.17;31.35
54455;BME280;40364;52.270;10.546;2024-01-30T11:19:33;101627.56;;;25.45;29.62
54455;BME280;40364;52.270;10.546;2024-01-30T11:21:59;101634.09;;;23.71;32.00
54455;BME280;40364;52.270;10.546;2024-01-30T11:24:27;101626.75;;;23.27;32.86
54455;BME280;40364;52.270;10.546;2024-01-30T11:26:56;101621.91;;;23.17;33.24
54455;BME280;40364;52.270;10.546;2024-01-30T11:29:25;101619.06;;;23.60;32.53
54455;BME280;40364;52.270;10.546;2024-01-30T11:31:53;101620.53;;;24.32;31.61
54455;BME280;40364;52.270;10.546;2024-01-30T11:34:20;101625.91;;;23.98;31.97
54455;BME280;40364;52.270;10.546;2024-01-30T11:36:52;101615.16;;;24.51;31.35
54455;BME280;40364;52.270;10.546;2024-01-30T11:39:24;101612.56;;;23.34;33.19
54455;BME280;40364;52.270;10.546;2024-01-30T11:41:52;101611.91;;;24.53;31.39
54455;BME280;40364;52.270;10.546;2024-01-30T11:44:19;101614.53;;;23.91;31.96
54455;BME280;40364;52.270;10.546;2024-01-30T11:46:48;101613.75;;;23.05;33.66
54455;BME280;40364;52.270;10.546;2024-01-30T11:49:16;101618.66;;;23.33;33.32
54455;BME280;40364;52.270;10.546;2024-01-30T11:51:43;101619.16;;;22.20;34.61
54455;BME280;40364;52.270;10.546;2024-01-30T11:54:14;101602.41;;;23.23;32.90
54455;BME280;40364;52.270;10.546;2024-01-30T11:56:41;101601.59;;;23.26;33.18
54455;BME280;40364;52.270;10.546;2024-01-30T11:59:08;101610.78;;;24.29;31.74
54455;BME280;40364;52.270;10.546;2024-01-30T12:01:35;101594.31;;;23.21;33.18
54455;BME280;40364;52.270;10.546;2024-01-30T12:04:04;101591.84;;;23.44;33.34
54455;BME280;40364;52.270;10.546;2024-01-30T12:06:33;101599.19;;;23.53;32.43
54455;BME280;40364;52.270;10.546;2024-01-30T12:09:03;101599.53;;;22.80;33.62
54455;BME280;40364;52.270;10.546;2024-01-30T12:11:30;101599.16;;;23.49;32.02
54455;BME280;40364;52.270;10.546;2024-01-30T12:13:57;101602.19;;;24.43;31.22
54455;BME280;40364;52.270;10.546;2024-01-30T12:16:24;101602.00;;;23.74;32.27
54455;BME280;40364;52.270;10.546;2024-01-30T12:18:59;101603.97;;;23.91;31.54
54455;BME280;40364;52.270;10.546;2024-01-30T12:21:28;101591.69;;;24.19;31.87
54455;BME280;40364;52.270;10.546;2024-01-30T12:23:56;101607.03;;;24.50;30.81
54455;BME280;40364;52.270;10.546;2024-01-30T12:26:23;101597.94;;;23.57;32.29
54455;BME280;40364;52.270;10.546;2024-01-30T12:28:50;101599.97;;;23.67;32.24
54455;BME280;40364;52.270;10.546;2024-01-30T12:31:25;101600.78;;;23.32;32.76
54455;BME280;40364;52.270;10.546;2024-01-30T12:33:53;101596.72;;;23.76;32.13
54455;BME280;40364;52.270;10.546;2024-01-30T12:36:20;101595.50;;;23.66;32.29
54455;BME280;40364;52.270;10.546;2024-01-30T12:38:48;101589.34;;;23.93;32.44
54455;BME280;40364;52.270;10.546;2024-01-30T12:41:15;101596.72;;;23.69;32.43